Flight Track Log - Related Links

Times and Time Zones

All times are in EDT time to prevent confusion due to time zone crossing. See the N21SF flight status page for this flight to view local times or setup timezone preferences in your user account.

Time Position Orientation Groundspeed Altitude Reporting Facility
EDT Latitude Longitude Course Direction KTS MPH feet Rate Location/Type
Thu 09:56:03 PM 41.5539 -81.5017 209° Southwest 163 188 1,700  Level Cleveland Center
Thu 09:56:39 PM 41.5247 -81.5233 175° South 203 234 2,700 3,379 Climbing Cleveland Center
Thu 09:57:46 PM 41.4497 -81.5139 150° Southeast 237 273 7,500 3,218 Climbing Cleveland Center
Thu 09:58:29 PM 41.4019 -81.4772 144° Southeast 288 331 8,600 744 Climbing Cleveland Center
Thu 09:59:47 PM 41.3150 -81.3931 146° Southeast 343 395 9,000 174 Climbing Cleveland Center
Thu 10:00:47 PM 41.2364 -81.3231 145° Southeast 328 377 9,000  Level Cleveland Center
Thu 10:01:47 PM 41.1617 -81.2533 146° Southeast 322 371 9,000  Level Cleveland Center
Thu 10:02:47 PM 41.0911 -81.1892 156° South 327 376 9,000  Level Cleveland Center
Thu 10:03:47 PM 41.0100 -81.1417 159° South 312 359 9,000  Level Cleveland Center
Thu 10:04:47 PM 40.9289 -81.0997 151° Southeast 312 359 9,000 -300 Level Cleveland Center
Thu 10:05:47 PM 40.8522 -81.0442 148° Southeast 312 359 8,400 -750 Descending Cleveland Center
Thu 10:06:47 PM 40.7772 -80.9833 150° Southeast 317 365 7,500 -850 Descending Cleveland Center
Thu 10:07:47 PM 40.7003 -80.9256 149° Southeast 322 371 6,700 -800 Descending Cleveland Center
Thu 10:08:47 PM 40.6275 -80.8675 150° Southeast 316 364 5,900 -650 Descending Cleveland Center
Thu 10:09:47 PM 40.5547 -80.8125 149° Southeast 316 364 5,400 -550 Descending Cleveland Center
Thu 10:10:47 PM 40.4861 -80.7578 151° Southeast 309 356 4,800 -550 Descending Cleveland Center
Thu 10:11:47 PM 40.4153 -80.7058 149° Southeast 304 350 4,300 -500 Descending Cleveland Center
Thu 10:12:47 PM 40.3464 -80.6511 149° Southeast 293 337 3,800 -600 Descending Cleveland Center
Thu 10:13:47 PM 40.2797 -80.5994 199° South 287 330 3,100 -700 Descending Cleveland Center
Thu 10:21:15 PM 39.6802 -80.8655 20° North  Level Estimated
Thu 10:22:15 PM 40.1667 -80.6333 310° West  Level FlightAware Approximate
Thu 10:23:15 PM 40.2213 -80.7183 130° Southeast  Level Estimated
Thu 10:24:15 PM 40.1667 -80.6333 130° Southeast  Level FlightAware Approximate

Login

Don't have an account? Register now (free) for customized features, flight alerts, and more!